sensor_id;sensor_type;location;lat;lon;timestamp;P1;durP1;ratioP1;P2;durP2;ratioP2
68188;SDS011;55008;47.514;19.218;2022-10-16T00:01:51;24.38;;;10.60;;
68188;SDS011;55008;47.514;19.218;2022-10-16T00:04:21;23.52;;;10.65;;
68188;SDS011;55008;47.514;19.218;2022-10-16T00:06:49;22.73;;;11.52;;
68188;SDS011;55008;47.514;19.218;2022-10-16T00:09:19;18.20;;;9.75;;
68188;SDS011;55008;47.514;19.218;2022-10-16T00:11:50;23.88;;;10.95;;
68188;SDS011;55008;47.514;19.218;2022-10-16T00:14:24;21.45;;;9.98;;
68188;SDS011;55008;47.514;19.218;2022-10-16T00:16:53;18.90;;;9.57;;
68188;SDS011;55008;47.514;19.218;2022-10-16T00:19:23;17.48;;;9.52;;
68188;SDS011;55008;47.514;19.218;2022-10-16T00:21:51;19.65;;;9.73;;
68188;SDS011;55008;47.514;19.218;2022-10-16T00:24:21;21.85;;;9.43;;
68188;SDS011;55008;47.514;19.218;2022-10-16T00:26:50;23.23;;;10.27;;
68188;SDS011;55008;47.514;19.218;2022-10-16T00:29:18;18.27;;;9.15;;
68188;SDS011;55008;47.514;19.218;2022-10-16T00:31:48;19.35;;;9.40;;
68188;SDS011;55008;47.514;19.218;2022-10-16T00:34:16;18.73;;;9.30;;
68188;SDS011;55008;47.514;19.218;2022-10-16T00:36:45;18.33;;;9.38;;
68188;SDS011;55008;47.514;19.218;2022-10-16T00:39:19;18.38;;;8.70;;
68188;SDS011;55008;47.514;19.218;2022-10-16T00:41:48;16.70;;;9.05;;
68188;SDS011;55008;47.514;19.218;2022-10-16T00:47:22;17.35;;;9.13;;
68188;SDS011;55008;47.514;19.218;2022-10-16T00:49:55;18.02;;;8.95;;
68188;SDS011;55008;47.514;19.218;2022-10-16T00:52:28;21.75;;;9.38;;
68188;SDS011;55008;47.514;19.218;2022-10-16T00:54:56;20.98;;;8.60;;
68188;SDS011;55008;47.514;19.218;2022-10-16T00:57:27;20.55;;;8.73;;
68188;SDS011;55008;47.514;19.218;2022-10-16T00:59:57;15.98;;;8.40;;
68188;SDS011;55008;47.514;19.218;2022-10-16T01:02:30;15.80;;;7.97;;
68188;SDS011;55008;47.514;19.218;2022-10-16T01:04:59;19.23;;;8.18;;
68188;SDS011;55008;47.514;19.218;2022-10-16T01:07:34;16.50;;;8.57;;
68188;SDS011;55008;47.514;19.218;2022-10-16T01:10:13;17.17;;;8.15;;
68188;SDS011;55008;47.514;19.218;2022-10-16T01:12:50;16.00;;;8.18;;
68188;SDS011;55008;47.514;19.218;2022-10-16T01:15:24;16.67;;;7.93;;
68188;SDS011;55008;47.514;19.218;2022-10-16T01:17:59;16.90;;;7.63;;
68188;SDS011;55008;47.514;19.218;2022-10-16T01:20:35;16.70;;;7.57;;
68188;SDS011;55008;47.514;19.218;2022-10-16T01:23:15;17.30;;;7.63;;
68188;SDS011;55008;47.514;19.218;2022-10-16T01:25:58;16.65;;;7.68;;
68188;SDS011;55008;47.514;19.218;2022-10-16T01:28:38;14.93;;;7.72;;
68188;SDS011;55008;47.514;19.218;2022-10-16T01:31:09;22.92;;;7.57;;
68188;SDS011;55008;47.514;19.218;2022-10-16T01:33:45;15.25;;;7.78;;
68188;SDS011;55008;47.514;19.218;2022-10-16T01:38:48;16.30;;;7.32;;
68188;SDS011;55008;47.514;19.218;2022-10-16T01:41:20;19.02;;;7.90;;
68188;SDS011;55008;47.514;19.218;2022-10-16T01:43:56;15.63;;;7.60;;
68188;SDS011;55008;47.514;19.218;2022-10-16T01:46:29;15.73;;;7.70;;
68188;SDS011;55008;47.514;19.218;2022-10-16T01:49:01;18.83;;;8.27;;
68188;SDS011;55008;47.514;19.218;2022-10-16T01:51:30;15.55;;;7.88;;
68188;SDS011;55008;47.514;19.218;2022-10-16T01:54:02;16.30;;;7.57;;
68188;SDS011;55008;47.514;19.218;2022-10-16T01:56:35;19.90;;;8.00;;
68188;SDS011;55008;47.514;19.218;2022-10-16T01:59:09;17.45;;;8.02;;
68188;SDS011;55008;47.514;19.218;2022-10-16T02:01:42;16.88;;;7.82;;
68188;SDS011;55008;47.514;19.218;2022-10-16T02:04:14;15.57;;;7.40;;
68188;SDS011;55008;47.514;19.218;2022-10-16T02:06:46;15.32;;;7.75;;
68188;SDS011;55008;47.514;19.218;2022-10-16T02:09:16;14.27;;;7.28;;
68188;SDS011;55008;47.514;19.218;2022-10-16T02:11:44;14.63;;;7.82;;
68188;SDS011;55008;47.514;19.218;2022-10-16T02:16:46;14.57;;;7.53;;
68188;SDS011;55008;47.514;19.218;2022-10-16T02:19:15;16.48;;;8.02;;
68188;SDS011;55008;47.514;19.218;2022-10-16T02:21:47;16.27;;;7.60;;
68188;SDS011;55008;47.514;19.218;2022-10-16T02:24:20;17.65;;;8.20;;
68188;SDS011;55008;47.514;19.218;2022-10-16T02:26:57;16.80;;;7.80;;
68188;SDS011;55008;47.514;19.218;2022-10-16T02:29:33;15.07;;;7.68;;
68188;SDS011;55008;47.514;19.218;2022-10-16T02:32:07;17.25;;;8.57;;
68188;SDS011;55008;47.514;19.218;2022-10-16T02:34:37;17.25;;;8.13;;
68188;SDS011;55008;47.514;19.218;2022-10-16T02:37:09;16.88;;;8.40;;
68188;SDS011;55008;47.514;19.218;2022-10-16T02:39:39;17.05;;;8.00;;
68188;SDS011;55008;47.514;19.218;2022-10-16T02:42:09;20.90;;;9.15;;
68188;SDS011;55008;47.514;19.218;2022-10-16T02:44:40;17.90;;;8.60;;
68188;SDS011;55008;47.514;19.218;2022-10-16T02:47:09;17.20;;;8.90;;
68188;SDS011;55008;47.514;19.218;2022-10-16T02:49:46;16.35;;;8.82;;
68188;SDS011;55008;47.514;19.218;2022-10-16T02:52:15;17.95;;;8.63;;
68188;SDS011;55008;47.514;19.218;2022-10-16T02:54:44;22.98;;;9.32;;
68188;SDS011;55008;47.514;19.218;2022-10-16T02:57:13;17.85;;;9.30;;
68188;SDS011;55008;47.514;19.218;2022-10-16T02:59:44;18.95;;;9.65;;
68188;SDS011;55008;47.514;19.218;2022-10-16T03:02:13;19.52;;;10.15;;
68188;SDS011;55008;47.514;19.218;2022-10-16T03:04:44;19.92;;;10.32;;
68188;SDS011;55008;47.514;19.218;2022-10-16T03:07:13;16.25;;;9.45;;
68188;SDS011;55008;47.514;19.218;2022-10-16T03:09:41;16.30;;;9.57;;
68188;SDS011;55008;47.514;19.218;2022-10-16T03:12:10;18.02;;;9.65;;
68188;SDS011;55008;47.514;19.218;2022-10-16T03:14:41;21.83;;;9.77;;
68188;SDS011;55008;47.514;19.218;2022-10-16T03:17:12;19.40;;;9.57;;
68188;SDS011;55008;47.514;19.218;2022-10-16T03:19:45;18.52;;;9.40;;
68188;SDS011;55008;47.514;19.218;2022-10-16T03:22:13;23.77;;;10.57;;
68188;SDS011;55008;47.514;19.218;2022-10-16T03:24:42;18.30;;;9.75;;
68188;SDS011;55008;47.514;19.218;2022-10-16T03:27:16;17.48;;;9.95;;
68188;SDS011;55008;47.514;19.218;2022-10-16T03:29:45;19.92;;;10.05;;
68188;SDS011;55008;47.514;19.218;2022-10-16T03:32:14;16.95;;;9.50;;
68188;SDS011;55008;47.514;19.218;2022-10-16T03:34:43;20.00;;;9.88;;
68188;SDS011;55008;47.514;19.218;2022-10-16T03:37:11;20.27;;;10.02;;
68188;SDS011;55008;47.514;19.218;2022-10-16T03:39:40;18.63;;;9.98;;
68188;SDS011;55008;47.514;19.218;2022-10-16T03:42:09;18.20;;;10.23;;
68188;SDS011;55008;47.514;19.218;2022-10-16T03:44:37;22.02;;;10.23;;
68188;SDS011;55008;47.514;19.218;2022-10-16T03:47:07;21.67;;;9.98;;
68188;SDS011;55008;47.514;19.218;2022-10-16T03:49:39;18.42;;;9.82;;
68188;SDS011;55008;47.514;19.218;2022-10-16T03:52:13;17.15;;;9.77;;
68188;SDS011;55008;47.514;19.218;2022-10-16T03:54:46;19.80;;;10.57;;
68188;SDS011;55008;47.514;19.218;2022-10-16T03:57:14;18.00;;;9.55;;
68188;SDS011;55008;47.514;19.218;2022-10-16T03:59:43;16.92;;;10.20;;
68188;SDS011;55008;47.514;19.218;2022-10-16T04:02:12;17.25;;;10.48;;
68188;SDS011;55008;47.514;19.218;2022-10-16T04:04:44;19.25;;;10.00;;
68188;SDS011;55008;47.514;19.218;2022-10-16T04:07:14;17.38;;;10.30;;
68188;SDS011;55008;47.514;19.218;2022-10-16T04:09:43;18.73;;;10.55;;
68188;SDS011;55008;47.514;19.218;2022-10-16T04:12:12;17.20;;;9.75;;
68188;SDS011;55008;47.514;19.218;2022-10-16T04:14:42;18.25;;;10.40;;
68188;SDS011;55008;47.514;19.218;2022-10-16T04:17:13;21.13;;;10.38;;
68188;SDS011;55008;47.514;19.218;2022-10-16T04:19:43;17.92;;;10.40;;
68188;SDS011;55008;47.514;19.218;2022-10-16T04:22:11;18.25;;;10.43;;
68188;SDS011;55008;47.514;19.218;2022-10-16T04:24:39;22.92;;;10.80;;
68188;SDS011;55008;47.514;19.218;2022-10-16T04:27:12;20.25;;;10.65;;
68188;SDS011;55008;47.514;19.218;2022-10-16T04:29:40;21.60;;;10.95;;
68188;SDS011;55008;47.514;19.218;2022-10-16T04:32:14;18.08;;;10.68;;
68188;SDS011;55008;47.514;19.218;2022-10-16T04:34:45;24.45;;;10.65;;
68188;SDS011;55008;47.514;19.218;2022-10-16T04:37:14;20.48;;;10.80;;
68188;SDS011;55008;47.514;19.218;2022-10-16T04:39:43;23.75;;;11.65;;
68188;SDS011;55008;47.514;19.218;2022-10-16T04:42:14;23.35;;;11.70;;
68188;SDS011;55008;47.514;19.218;2022-10-16T04:44:49;19.38;;;11.13;;
68188;SDS011;55008;47.514;19.218;2022-10-16T04:47:20;19.02;;;10.85;;
68188;SDS011;55008;47.514;19.218;2022-10-16T04:50:00;19.75;;;11.13;;
68188;SDS011;55008;47.514;19.218;2022-10-16T04:52:34;21.80;;;11.32;;
68188;SDS011;55008;47.514;19.218;2022-10-16T04:55:06;18.27;;;10.95;;
68188;SDS011;55008;47.514;19.218;2022-10-16T04:57:35;20.27;;;10.82;;
68188;SDS011;55008;47.514;19.218;2022-10-16T05:00:05;19.85;;;11.23;;
68188;SDS011;55008;47.514;19.218;2022-10-16T05:02:36;21.75;;;11.20;;
68188;SDS011;55008;47.514;19.218;2022-10-16T05:05:06;20.67;;;10.98;;
68188;SDS011;55008;47.514;19.218;2022-10-16T05:07:35;21.90;;;10.80;;
68188;SDS011;55008;47.514;19.218;2022-10-16T05:10:06;22.33;;;11.95;;
68188;SDS011;55008;47.514;19.218;2022-10-16T05:12:35;21.95;;;11.65;;
68188;SDS011;55008;47.514;19.218;2022-10-16T05:15:06;20.15;;;11.27;;
68188;SDS011;55008;47.514;19.218;2022-10-16T05:17:36;21.73;;;11.88;;
68188;SDS011;55008;47.514;19.218;2022-10-16T05:20:16;24.10;;;12.45;;
68188;SDS011;55008;47.514;19.218;2022-10-16T05:22:48;21.85;;;12.60;;
68188;SDS011;55008;47.514;19.218;2022-10-16T05:25:19;22.30;;;12.43;;
68188;SDS011;55008;47.514;19.218;2022-10-16T05:27:49;25.83;;;12.50;;
68188;SDS011;55008;47.514;19.218;2022-10-16T05:30:20;22.95;;;13.07;;
68188;SDS011;55008;47.514;19.218;2022-10-16T05:32:48;29.00;;;13.90;;
68188;SDS011;55008;47.514;19.218;2022-10-16T05:35:19;23.73;;;13.10;;
68188;SDS011;55008;47.514;19.218;2022-10-16T05:37:48;22.35;;;13.07;;
68188;SDS011;55008;47.514;19.218;2022-10-16T05:40:16;23.70;;;12.68;;
68188;SDS011;55008;47.514;19.218;2022-10-16T05:42:46;24.38;;;13.30;;
68188;SDS011;55008;47.514;19.218;2022-10-16T05:45:14;21.15;;;12.20;;
68188;SDS011;55008;47.514;19.218;2022-10-16T05:47:42;19.95;;;11.95;;
68188;SDS011;55008;47.514;19.218;2022-10-16T05:50:11;22.48;;;12.85;;
68188;SDS011;55008;47.514;19.218;2022-10-16T05:52:41;21.88;;;12.13;;
68188;SDS011;55008;47.514;19.218;2022-10-16T05:55:09;23.65;;;12.65;;
68188;SDS011;55008;47.514;19.218;2022-10-16T05:57:39;23.30;;;13.65;;
68188;SDS011;55008;47.514;19.218;2022-10-16T06:00:09;23.05;;;13.43;;
68188;SDS011;55008;47.514;19.218;2022-10-16T06:02:38;21.95;;;12.98;;
68188;SDS011;55008;47.514;19.218;2022-10-16T06:05:06;24.42;;;12.70;;
68188;SDS011;55008;47.514;19.218;2022-10-16T06:07:35;26.00;;;13.38;;
68188;SDS011;55008;47.514;19.218;2022-10-16T06:10:09;28.33;;;13.13;;
68188;SDS011;55008;47.514;19.218;2022-10-16T06:12:38;25.98;;;14.57;;
68188;SDS011;55008;47.514;19.218;2022-10-16T06:15:08;26.05;;;14.23;;
68188;SDS011;55008;47.514;19.218;2022-10-16T06:17:37;25.15;;;14.38;;
68188;SDS011;55008;47.514;19.218;2022-10-16T06:20:10;24.70;;;14.52;;
68188;SDS011;55008;47.514;19.218;2022-10-16T06:22:40;30.33;;;18.48;;
68188;SDS011;55008;47.514;19.218;2022-10-16T06:25:10;30.60;;;17.98;;
68188;SDS011;55008;47.514;19.218;2022-10-16T06:27:39;28.90;;;14.10;;
68188;SDS011;55008;47.514;19.218;2022-10-16T06:30:10;25.17;;;13.00;;
68188;SDS011;55008;47.514;19.218;2022-10-16T06:32:41;24.47;;;12.00;;
68188;SDS011;55008;47.514;19.218;2022-10-16T06:35:12;23.17;;;12.57;;
68188;SDS011;55008;47.514;19.218;2022-10-16T06:37:41;20.92;;;11.75;;
68188;SDS011;55008;47.514;19.218;2022-10-16T06:40:11;21.88;;;11.60;;
68188;SDS011;55008;47.514;19.218;2022-10-16T06:42:41;21.88;;;11.85;;
68188;SDS011;55008;47.514;19.218;2022-10-16T06:45:10;22.60;;;11.70;;
68188;SDS011;55008;47.514;19.218;2022-10-16T06:47:42;21.48;;;11.98;;
68188;SDS011;55008;47.514;19.218;2022-10-16T06:50:10;20.33;;;11.65;;
68188;SDS011;55008;47.514;19.218;2022-10-16T06:52:43;21.52;;;11.40;;
68188;SDS011;55008;47.514;19.218;2022-10-16T06:55:13;22.63;;;11.70;;
68188;SDS011;55008;47.514;19.218;2022-10-16T06:57:43;20.58;;;10.70;;
68188;SDS011;55008;47.514;19.218;2022-10-16T07:00:19;24.17;;;11.02;;
68188;SDS011;55008;47.514;19.218;2022-10-16T07:02:55;22.00;;;10.57;;
68188;SDS011;55008;47.514;19.218;2022-10-16T07:05:27;18.40;;;10.82;;
68188;SDS011;55008;47.514;19.218;2022-10-16T07:07:59;19.25;;;10.15;;
68188;SDS011;55008;47.514;19.218;2022-10-16T07:10:34;18.80;;;10.57;;
68188;SDS011;55008;47.514;19.218;2022-10-16T07:13:04;19.33;;;10.80;;
68188;SDS011;55008;47.514;19.218;2022-10-16T07:15:34;20.48;;;10.15;;
68188;SDS011;55008;47.514;19.218;2022-10-16T07:18:03;21.67;;;9.90;;
68188;SDS011;55008;47.514;19.218;2022-10-16T07:20:32;19.23;;;10.00;;
68188;SDS011;55008;47.514;19.218;2022-10-16T07:23:05;18.73;;;9.88;;
68188;SDS011;55008;47.514;19.218;2022-10-16T07:25:37;19.80;;;9.80;;
68188;SDS011;55008;47.514;19.218;2022-10-16T07:28:07;20.58;;;9.85;;
68188;SDS011;55008;47.514;19.218;2022-10-16T07:30:37;20.25;;;9.98;;
68188;SDS011;55008;47.514;19.218;2022-10-16T07:33:07;18.38;;;10.00;;
68188;SDS011;55008;47.514;19.218;2022-10-16T07:35:35;18.35;;;9.85;;
68188;SDS011;55008;47.514;19.218;2022-10-16T07:38:04;17.80;;;9.40;;
68188;SDS011;55008;47.514;19.218;2022-10-16T07:40:39;15.25;;;9.13;;
68188;SDS011;55008;47.514;19.218;2022-10-16T07:43:08;17.33;;;9.18;;
68188;SDS011;55008;47.514;19.218;2022-10-16T07:45:37;21.13;;;9.80;;
68188;SDS011;55008;47.514;19.218;2022-10-16T07:48:15;22.48;;;9.70;;
68188;SDS011;55008;47.514;19.218;2022-10-16T07:50:45;17.92;;;9.57;;
68188;SDS011;55008;47.514;19.218;2022-10-16T07:53:15;19.60;;;9.80;;
68188;SDS011;55008;47.514;19.218;2022-10-16T07:55:46;19.63;;;8.90;;
68188;SDS011;55008;47.514;19.218;2022-10-16T07:58:15;16.63;;;9.77;;
68188;SDS011;55008;47.514;19.218;2022-10-16T08:00:45;20.33;;;9.07;;
68188;SDS011;55008;47.514;19.218;2022-10-16T08:03:14;16.75;;;9.10;;
68188;SDS011;55008;47.514;19.218;2022-10-16T08:05:42;15.80;;;8.73;;
68188;SDS011;55008;47.514;19.218;2022-10-16T08:08:12;17.45;;;8.88;;
68188;SDS011;55008;47.514;19.218;2022-10-16T08:10:42;22.23;;;9.60;;
68188;SDS011;55008;47.514;19.218;2022-10-16T08:13:12;22.90;;;9.85;;
68188;SDS011;55008;47.514;19.218;2022-10-16T08:15:46;17.25;;;9.60;;
68188;SDS011;55008;47.514;19.218;2022-10-16T08:18:15;23.50;;;9.20;;
68188;SDS011;55008;47.514;19.218;2022-10-16T08:20:46;19.15;;;9.15;;
68188;SDS011;55008;47.514;19.218;2022-10-16T08:23:18;18.08;;;8.88;;
68188;SDS011;55008;47.514;19.218;2022-10-16T08:25:47;17.20;;;8.45;;
68188;SDS011;55008;47.514;19.218;2022-10-16T08:28:20;18.77;;;9.13;;
68188;SDS011;55008;47.514;19.218;2022-10-16T08:30:50;16.60;;;8.60;;
68188;SDS011;55008;47.514;19.218;2022-10-16T08:33:21;18.55;;;8.80;;
68188;SDS011;55008;47.514;19.218;2022-10-16T08:35:52;17.45;;;9.10;;
68188;SDS011;55008;47.514;19.218;2022-10-16T08:38:21;16.48;;;8.70;;
68188;SDS011;55008;47.514;19.218;2022-10-16T08:40:53;20.50;;;9.15;;
68188;SDS011;55008;47.514;19.218;2022-10-16T08:43:35;16.20;;;8.50;;
68188;SDS011;55008;47.514;19.218;2022-10-16T08:46:16;19.08;;;9.25;;
68188;SDS011;55008;47.514;19.218;2022-10-16T08:48:52;19.25;;;8.55;;
68188;SDS011;55008;47.514;19.218;2022-10-16T08:51:23;19.17;;;8.00;;
68188;SDS011;55008;47.514;19.218;2022-10-16T08:53:54;19.20;;;8.40;;
68188;SDS011;55008;47.514;19.218;2022-10-16T08:56:25;19.17;;;8.82;;
68188;SDS011;55008;47.514;19.218;2022-10-16T08:58:59;24.17;;;9.00;;
68188;SDS011;55008;47.514;19.218;2022-10-16T09:01:40;21.88;;;8.70;;
68188;SDS011;55008;47.514;19.218;2022-10-16T09:07:11;16.58;;;9.05;;
68188;SDS011;55008;47.514;19.218;2022-10-16T09:09:49;16.95;;;8.38;;
68188;SDS011;55008;47.514;19.218;2022-10-16T09:12:31;20.73;;;8.57;;
68188;SDS011;55008;47.514;19.218;2022-10-16T09:15:11;22.65;;;8.45;;
68188;SDS011;55008;47.514;19.218;2022-10-16T09:17:51;17.08;;;8.20;;
68188;SDS011;55008;47.514;19.218;2022-10-16T09:20:30;20.75;;;8.00;;
68188;SDS011;55008;47.514;19.218;2022-10-16T09:23:16;18.75;;;8.48;;
68188;SDS011;55008;47.514;19.218;2022-10-16T09:25:47;17.33;;;8.40;;
68188;SDS011;55008;47.514;19.218;2022-10-16T09:28:18;19.55;;;8.25;;
68188;SDS011;55008;47.514;19.218;2022-10-16T09:30:48;19.88;;;8.43;;
68188;SDS011;55008;47.514;19.218;2022-10-16T09:33:19;16.63;;;7.90;;
68188;SDS011;55008;47.514;19.218;2022-10-16T09:35:49;15.63;;;8.25;;
68188;SDS011;55008;47.514;19.218;2022-10-16T09:38:24;17.88;;;7.93;;
68188;SDS011;55008;47.514;19.218;2022-10-16T09:40:55;15.25;;;7.60;;
68188;SDS011;55008;47.514;19.218;2022-10-16T09:43:31;20.17;;;7.65;;
68188;SDS011;55008;47.514;19.218;2022-10-16T09:46:08;17.25;;;7.88;;
68188;SDS011;55008;47.514;19.218;2022-10-16T09:48:49;16.50;;;8.00;;
68188;SDS011;55008;47.514;19.218;2022-10-16T09:51:22;23.98;;;7.72;;
68188;SDS011;55008;47.514;19.218;2022-10-16T09:53:55;14.57;;;7.30;;
68188;SDS011;55008;47.514;19.218;2022-10-16T09:56:25;14.45;;;7.72;;
68188;SDS011;55008;47.514;19.218;2022-10-16T09:58:56;14.23;;;7.60;;
68188;SDS011;55008;47.514;19.218;2022-10-16T10:01:31;14.80;;;7.32;;
68188;SDS011;55008;47.514;19.218;2022-10-16T10:04:05;15.77;;;8.20;;
68188;SDS011;55008;47.514;19.218;2022-10-16T10:06:41;17.10;;;7.78;;
68188;SDS011;55008;47.514;19.218;2022-10-16T10:09:21;16.98;;;7.57;;
68188;SDS011;55008;47.514;19.218;2022-10-16T10:11:55;15.48;;;7.38;;
68188;SDS011;55008;47.514;19.218;2022-10-16T10:14:25;14.13;;;7.60;;
68188;SDS011;55008;47.514;19.218;2022-10-16T10:17:14;18.60;;;7.22;;
68188;SDS011;55008;47.514;19.218;2022-10-16T10:19:48;15.02;;;6.88;;
68188;SDS011;55008;47.514;19.218;2022-10-16T10:22:20;16.27;;;7.38;;
68188;SDS011;55008;47.514;19.218;2022-10-16T10:24:55;13.85;;;7.10;;
68188;SDS011;55008;47.514;19.218;2022-10-16T10:27:37;14.00;;;6.97;;
68188;SDS011;55008;47.514;19.218;2022-10-16T10:30:18;16.48;;;7.22;;
68188;SDS011;55008;47.514;19.218;2022-10-16T10:32:55;16.23;;;6.90;;
68188;SDS011;55008;47.514;19.218;2022-10-16T10:35:38;15.15;;;6.88;;
68188;SDS011;55008;47.514;19.218;2022-10-16T10:38:16;13.95;;;6.80;;
68188;SDS011;55008;47.514;19.218;2022-10-16T10:43:49;18.30;;;7.70;;
68188;SDS011;55008;47.514;19.218;2022-10-16T10:46:28;15.38;;;6.75;;
68188;SDS011;55008;47.514;19.218;2022-10-16T10:49:23;13.48;;;6.93;;
68188;SDS011;55008;47.514;19.218;2022-10-16T10:52:30;13.20;;;6.72;;
68188;SDS011;55008;47.514;19.218;2022-10-16T10:55:10;14.15;;;6.63;;
68188;SDS011;55008;47.514;19.218;2022-10-16T10:57:52;15.13;;;6.95;;
68188;SDS011;55008;47.514;19.218;2022-10-16T11:00:36;12.55;;;6.25;;
68188;SDS011;55008;47.514;19.218;2022-10-16T11:03:21;15.82;;;6.82;;
68188;SDS011;55008;47.514;19.218;2022-10-16T11:06:10;15.35;;;6.43;;
68188;SDS011;55008;47.514;19.218;2022-10-16T11:08:43;13.63;;;6.03;;
68188;SDS011;55008;47.514;19.218;2022-10-16T11:11:18;12.05;;;6.10;;
68188;SDS011;55008;47.514;19.218;2022-10-16T11:13:52;17.75;;;6.43;;
68188;SDS011;55008;47.514;19.218;2022-10-16T11:16:26;15.45;;;6.30;;
68188;SDS011;55008;47.514;19.218;2022-10-16T11:18:57;15.82;;;6.30;;
68188;SDS011;55008;47.514;19.218;2022-10-16T11:21:33;12.27;;;5.80;;
68188;SDS011;55008;47.514;19.218;2022-10-16T11:24:12;12.95;;;6.07;;
68188;SDS011;55008;47.514;19.218;2022-10-16T11:26:46;14.85;;;6.03;;
68188;SDS011;55008;47.514;19.218;2022-10-16T11:29:22;14.68;;;6.13;;
68188;SDS011;55008;47.514;19.218;2022-10-16T11:31:55;11.85;;;5.95;;
68188;SDS011;55008;47.514;19.218;2022-10-16T11:34:28;13.65;;;5.90;;
68188;SDS011;55008;47.514;19.218;2022-10-16T11:37:08;13.57;;;5.80;;
68188;SDS011;55008;47.514;19.218;2022-10-16T11:39:41;14.15;;;5.85;;
68188;SDS011;55008;47.514;19.218;2022-10-16T11:42:13;13.10;;;6.00;;
68188;SDS011;55008;47.514;19.218;2022-10-16T11:44:50;12.75;;;6.00;;
68188;SDS011;55008;47.514;19.218;2022-10-16T11:47:31;12.48;;;5.78;;
68188;SDS011;55008;47.514;19.218;2022-10-16T11:50:23;13.18;;;6.25;;
68188;SDS011;55008;47.514;19.218;2022-10-16T11:53:00;13.50;;;5.88;;
68188;SDS011;55008;47.514;19.218;2022-10-16T11:55:32;11.75;;;5.88;;
68188;SDS011;55008;47.514;19.218;2022-10-16T11:58:15;11.93;;;5.88;;
68188;SDS011;55008;47.514;19.218;2022-10-16T12:00:53;11.55;;;5.78;;
68188;SDS011;55008;47.514;19.218;2022-10-16T12:03:31;12.82;;;5.72;;
68188;SDS011;55008;47.514;19.218;2022-10-16T12:06:09;13.55;;;6.25;;
68188;SDS011;55008;47.514;19.218;2022-10-16T12:08:48;12.73;;;5.78;;
68188;SDS011;55008;47.514;19.218;2022-10-16T12:11:23;11.75;;;5.40;;
68188;SDS011;55008;47.514;19.218;2022-10-16T12:14:06;14.60;;;5.97;;
68188;SDS011;55008;47.514;19.218;2022-10-16T12:16:52;14.02;;;5.43;;
68188;SDS011;55008;47.514;19.218;2022-10-16T12:19:23;111.75;;;10.05;;
68188;SDS011;55008;47.514;19.218;2022-10-16T12:21:52;75.07;;;7.45;;
68188;SDS011;55008;47.514;19.218;2022-10-16T12:24:31;15.35;;;5.43;;
68188;SDS011;55008;47.514;19.218;2022-10-16T12:27:02;27.15;;;5.80;;
68188;SDS011;55008;47.514;19.218;2022-10-16T12:29:35;12.93;;;5.03;;
68188;SDS011;55008;47.514;19.218;2022-10-16T12:35:21;13.32;;;5.15;;
68188;SDS011;55008;47.514;19.218;2022-10-16T12:37:54;14.82;;;5.07;;
68188;SDS011;55008;47.514;19.218;2022-10-16T12:40:37;14.90;;;5.28;;
68188;SDS011;55008;47.514;19.218;2022-10-16T12:43:12;13.55;;;5.15;;
68188;SDS011;55008;47.514;19.218;2022-10-16T12:46:00;13.70;;;5.15;;
68188;SDS011;55008;47.514;19.218;2022-10-16T12:48:38;13.50;;;5.28;;
68188;SDS011;55008;47.514;19.218;2022-10-16T12:51:35;11.90;;;5.00;;
68188;SDS011;55008;47.514;19.218;2022-10-16T12:54:11;12.93;;;5.03;;
68188;SDS011;55008;47.514;19.218;2022-10-16T12:56:46;11.43;;;4.90;;
68188;SDS011;55008;47.514;19.218;2022-10-16T12:59:26;10.60;;;4.85;;
68188;SDS011;55008;47.514;19.218;2022-10-16T13:02:15;14.85;;;4.93;;
68188;SDS011;55008;47.514;19.218;2022-10-16T13:05:08;12.90;;;5.15;;
68188;SDS011;55008;47.514;19.218;2022-10-16T13:07:50;14.73;;;5.10;;
68188;SDS011;55008;47.514;19.218;2022-10-16T13:10:27;10.05;;;4.70;;
68188;SDS011;55008;47.514;19.218;2022-10-16T13:13:10;11.98;;;5.10;;
68188;SDS011;55008;47.514;19.218;2022-10-16T13:16:03;11.82;;;4.95;;
68188;SDS011;55008;47.514;19.218;2022-10-16T13:18:45;10.57;;;4.88;;
68188;SDS011;55008;47.514;19.218;2022-10-16T13:21:23;12.18;;;5.13;;
68188;SDS011;55008;47.514;19.218;2022-10-16T13:24:07;11.80;;;4.80;;
68188;SDS011;55008;47.514;19.218;2022-10-16T13:26:46;12.95;;;4.57;;
68188;SDS011;55008;47.514;19.218;2022-10-16T13:29:28;13.23;;;5.10;;
68188;SDS011;55008;47.514;19.218;2022-10-16T13:32:07;10.65;;;4.68;;
68188;SDS011;55008;47.514;19.218;2022-10-16T13:34:44;11.93;;;5.03;;
68188;SDS011;55008;47.514;19.218;2022-10-16T13:37:18;12.70;;;4.90;;
68188;SDS011;55008;47.514;19.218;2022-10-16T13:40:02;12.90;;;5.10;;
68188;SDS011;55008;47.514;19.218;2022-10-16T13:42:45;12.65;;;5.00;;
68188;SDS011;55008;47.514;19.218;2022-10-16T13:45:23;10.50;;;4.80;;
68188;SDS011;55008;47.514;19.218;2022-10-16T13:48:03;11.18;;;5.10;;
68188;SDS011;55008;47.514;19.218;2022-10-16T13:50:44;12.55;;;4.78;;
68188;SDS011;55008;47.514;19.218;2022-10-16T13:53:13;14.23;;;5.07;;
68188;SDS011;55008;47.514;19.218;2022-10-16T13:55:44;12.68;;;4.80;;
68188;SDS011;55008;47.514;19.218;2022-10-16T13:58:14;12.93;;;4.95;;
68188;SDS011;55008;47.514;19.218;2022-10-16T14:00:55;13.07;;;4.88;;
68188;SDS011;55008;47.514;19.218;2022-10-16T14:03:26;11.43;;;4.82;;
68188;SDS011;55008;47.514;19.218;2022-10-16T14:05:59;15.55;;;5.00;;
68188;SDS011;55008;47.514;19.218;2022-10-16T14:08:30;14.93;;;5.03;;
68188;SDS011;55008;47.514;19.218;2022-10-16T14:11:06;11.30;;;5.00;;
68188;SDS011;55008;47.514;19.218;2022-10-16T14:13:37;10.37;;;4.83;;
68188;SDS011;55008;47.514;19.218;2022-10-16T14:16:17;11.07;;;4.82;;
68188;SDS011;55008;47.514;19.218;2022-10-16T14:18:55;12.40;;;5.00;;
68188;SDS011;55008;47.514;19.218;2022-10-16T14:21:26;14.40;;;5.15;;
68188;SDS011;55008;47.514;19.218;2022-10-16T14:23:55;12.13;;;5.20;;
68188;SDS011;55008;47.514;19.218;2022-10-16T14:26:25;12.13;;;4.93;;
68188;SDS011;55008;47.514;19.218;2022-10-16T14:29:11;10.88;;;4.90;;
68188;SDS011;55008;47.514;19.218;2022-10-16T14:31:53;12.05;;;5.00;;
68188;SDS011;55008;47.514;19.218;2022-10-16T14:34:31;10.95;;;5.07;;
68188;SDS011;55008;47.514;19.218;2022-10-16T14:37:05;11.75;;;5.05;;
68188;SDS011;55008;47.514;19.218;2022-10-16T14:39:42;12.18;;;5.38;;
68188;SDS011;55008;47.514;19.218;2022-10-16T14:42:24;11.25;;;4.90;;
68188;SDS011;55008;47.514;19.218;2022-10-16T14:44:53;13.57;;;5.00;;
68188;SDS011;55008;47.514;19.218;2022-10-16T14:47:35;16.83;;;5.22;;
68188;SDS011;55008;47.514;19.218;2022-10-16T14:50:15;16.70;;;5.50;;
68188;SDS011;55008;47.514;19.218;2022-10-16T14:52:46;15.73;;;5.53;;
68188;SDS011;55008;47.514;19.218;2022-10-16T14:55:22;11.10;;;5.40;;
68188;SDS011;55008;47.514;19.218;2022-10-16T14:57:52;15.68;;;4.95;;
68188;SDS011;55008;47.514;19.218;2022-10-16T15:00:27;17.52;;;5.13;;
68188;SDS011;55008;47.514;19.218;2022-10-16T15:02:59;12.27;;;5.30;;
68188;SDS011;55008;47.514;19.218;2022-10-16T15:05:29;11.73;;;5.18;;
68188;SDS011;55008;47.514;19.218;2022-10-16T15:08:00;16.65;;;5.15;;
68188;SDS011;55008;47.514;19.218;2022-10-16T15:10:32;14.05;;;6.00;;
68188;SDS011;55008;47.514;19.218;2022-10-16T15:13:11;12.07;;;5.18;;